Airfield :
LOGIN :

Register | Disclaimer

   EN    FR    IT 

 










Legend :    VFR   Marginal VFR   IFR   Intensive IFR   Very Intensive IFR
Visi :
Ceiling :
>= 8 km
>= 3000ft
5 to 8 km
1000 to 3000 ft
1500m to 5 km
500 to 1000 ft
800 to 1500m
200 to 500 ft
< 800m
< 200 ft
Symbols :   Thunderstorms  Fog  Heavy snow  Heavy precipitations  Wind > 20 kt
SIGMETs :     Misc.  Thunderstorms  Icing  Turbulence  Mountain Waves  Volcanic Ashes







- Airport Elevation : 314 ft
- IATA code : OTP


LROP - Bucarest - Henri Coanda

CURRENT METAR :
  • 160730Z 06009KT 030V090 CAVOK 27/15 Q1015 NOSIG

EXPIRED METARs :
  • 160700Z 06010KT CAVOK 26/15 Q1015 NOSIG
  • 160630Z AUTO 07008KT 030V100 9999 NCD 25/14 Q1015 NOSIG
  • 160600Z 01003KT 320V050 CAVOK 23/14 Q1015 NOSIG
  • 160530Z 35004KT CAVOK 22/14 Q1015 NOSIG
  • 160500Z 35004KT 320V030 CAVOK 20/14 Q1015 NOSIG

TAF TAF LROP
Valid from the 16 at 06:00 until the 17 at 06:00 UTC


160500Z 1606/1706 03008KT CAVOK
No reported NOTAMs for that airfield.



MET'MAP, your aeronautical weather chart ! - Copyright ORBIFLY December 2007 - Disclaimer

ORBIFLY MET'MAP TEAM :

Programming & Development : Alexandra Zaïnal
Concept & Development : Baudouin d'Aumeries
Co-Development & Prog : Marc-Olivier Méhu
Technical & hardware support : Manuel Goepfert

Contact : metmap@orbifly.com




SOURCES & CREDITS :

   NOAA